createdAt,value
2022-11-09T18:27:17.524Z,27.22
2022-11-09T18:32:18.675Z,27.74
2022-11-09T18:37:16.140Z,27.63
2022-11-09T18:42:17.334Z,27.67
2022-11-09T18:47:26.024Z,28.00
2022-11-09T18:52:14.784Z,28.46
2022-11-09T18:57:19.506Z,28.95
2022-11-09T19:02:12.345Z,29.05
2022-11-09T19:07:12.548Z,28.70
2022-11-09T19:12:11.484Z,28.86
2022-11-09T19:17:13.021Z,29.41
2022-11-09T19:22:10.103Z,29.11
2022-11-09T19:27:08.307Z,29.02
2022-11-09T19:32:08.264Z,29.42
2022-11-09T19:37:08.787Z,29.53
2022-11-09T19:42:05.711Z,29.15
2022-11-09T19:47:05.034Z,29.31
2022-11-09T19:52:06.130Z,29.74
2022-11-09T19:57:04.761Z,29.78
2022-11-09T20:02:02.918Z,29.34
2022-11-09T20:07:02.220Z,29.39
2022-11-09T20:12:01.297Z,29.76
2022-11-09T20:17:03.417Z,29.94
2022-11-09T20:21:59.569Z,29.57
2022-11-09T20:26:59.999Z,29.36
2022-11-09T20:31:58.317Z,29.71
2022-11-09T20:36:57.481Z,29.65
2022-11-09T20:41:56.766Z,29.36
2022-11-09T20:46:55.885Z,29.86
2022-11-09T20:51:55.950Z,29.70
2022-11-09T20:56:55.448Z,29.37
2022-11-09T21:01:53.549Z,29.64
2022-11-09T21:06:53.919Z,30.01
2022-11-09T21:11:51.953Z,30.47
2022-11-09T21:16:51.146Z,30.31
2022-11-09T21:21:50.384Z,29.85
2022-11-09T21:26:50.595Z,22.10
2022-11-09T21:31:48.771Z,20.50
2022-11-09T21:36:48.001Z,21.42
2022-11-09T21:41:47.258Z,20.43
2022-11-09T21:46:46.733Z,20.36
2022-11-09T21:51:46.696Z,20.06
2022-11-09T21:56:45.887Z,21.29
2022-11-09T22:01:45.156Z,21.92
2022-11-09T22:06:44.278Z,19.83
2022-11-09T22:11:43.482Z,20.58
2022-11-09T22:16:42.685Z,20.95
2022-11-09T22:21:40.886Z,21.46
2022-11-09T22:26:40.137Z,20.66
2022-11-09T22:31:40.340Z,20.26
2022-11-09T22:36:38.626Z,20.97
2022-11-09T22:41:36.885Z,19.68
2022-11-09T22:46:37.151Z,19.55
2022-11-09T22:51:35.378Z,19.22
2022-11-09T22:56:35.631Z,20.20
2022-11-09T23:01:35.005Z,19.63
2022-11-09T23:06:34.090Z,19.32
2022-11-09T23:11:35.380Z,19.13
2022-11-09T23:16:31.564Z,20.52
2022-11-09T23:21:31.892Z,19.66
2022-11-09T23:26:30.104Z,19.19
2022-11-09T23:31:30.337Z,19.06
2022-11-09T23:36:28.622Z,19.29
2022-11-09T23:41:28.823Z,19.44
2022-11-09T23:46:29.015Z,19.40
2022-11-09T23:51:26.218Z,19.62
2022-11-09T23:56:26.398Z,27.04
